createdAt,value
2022-12-15T00:01:22.459Z,0.00
2022-12-15T00:06:44.514Z,0.00
2022-12-15T00:12:06.845Z,0.00
2022-12-15T00:17:29.323Z,0.00
2022-12-15T00:22:51.445Z,0.00
2022-12-15T00:28:16.272Z,0.00
2022-12-15T00:33:38.497Z,0.00
2022-12-15T00:38:45.668Z,1.00
2022-12-15T00:43:50.093Z,1.00
2022-12-15T00:48:54.358Z,1.00
2022-12-15T00:54:18.138Z,1.00
2022-12-15T00:59:40.517Z,3.00
2022-12-15T01:05:02.542Z,3.50
2022-12-15T01:10:24.668Z,3.25
2022-12-15T01:15:47.462Z,4.50
2022-12-15T01:21:02.115Z,5.00
2022-12-15T01:26:06.677Z,4.00
2022-12-15T01:31:12.937Z,5.75
2022-12-15T01:36:17.071Z,6.00
2022-12-15T01:41:21.106Z,4.50
2022-12-15T01:46:27.295Z,5.00
2022-12-15T01:51:39.163Z,4.50
2022-12-15T01:56:48.017Z,5.00
2022-12-15T02:01:52.347Z,5.00
2022-12-15T02:06:56.551Z,5.75
2022-12-15T02:12:21.855Z,6.75
2022-12-15T02:17:31.760Z,7.25
2022-12-15T02:22:38.716Z,15.75
2022-12-15T02:28:11.560Z,12.00
2022-12-15T02:33:18.533Z,10.00
2022-12-15T02:38:36.729Z,8.50
2022-12-15T02:43:40.816Z,8.00
2022-12-15T02:48:47.906Z,8.00
2022-12-15T02:54:00.718Z,7.50
2022-12-15T02:59:15.347Z,7.25
2022-12-15T03:04:20.520Z,8.00
2022-12-15T03:09:25.548Z,6.25
2022-12-15T03:14:29.793Z,6.00
2022-12-15T03:19:34.085Z,5.50
2022-12-15T03:24:38.737Z,6.00
2022-12-15T03:29:43.295Z,5.75
2022-12-15T03:34:47.903Z,3.00
2022-12-15T03:39:52.685Z,4.00
2022-12-15T03:44:56.714Z,4.00
2022-12-15T03:50:01.028Z,5.00
2022-12-15T03:55:06.265Z,4.00
2022-12-15T04:00:16.361Z,4.00
2022-12-15T04:05:26.951Z,6.75
2022-12-15T04:10:34.744Z,6.00
2022-12-15T04:15:41.068Z,6.25
2022-12-15T04:20:45.722Z,6.00
2022-12-15T04:26:13.052Z,4.25
2022-12-15T04:31:38.161Z,3.00
2022-12-15T04:37:01.917Z,2.75
2022-12-15T04:42:25.028Z,2.00
2022-12-15T04:47:48.754Z,2.75
2022-12-15T04:53:11.735Z,3.50
2022-12-15T04:58:34.597Z,2.25
2022-12-15T05:03:57.555Z,2.00
2022-12-15T05:09:21.025Z,3.00
2022-12-15T05:14:43.225Z,1.75
2022-12-15T05:20:07.827Z,2.00
2022-12-15T05:25:30.705Z,1.00
2022-12-15T05:30:53.712Z,3.75
2022-12-15T05:35:59.542Z,1.00
2022-12-15T05:41:03.970Z,2.00
2022-12-15T05:46:08.916Z,1.00
2022-12-15T05:51:13.927Z,2.25
2022-12-15T05:56:18.628Z,1.00
2022-12-15T06:01:23.752Z,2.25
2022-12-15T06:06:28.412Z,1.75
2022-12-15T06:11:33.067Z,1.00
2022-12-15T06:16:44.221Z,3.75
2022-12-15T06:21:55.989Z,2.00
2022-12-15T06:27:04.168Z,1.00
2022-12-15T06:32:08.778Z,1.25
2022-12-15T06:37:13.817Z,1.25
2022-12-15T06:42:18.509Z,1.00
2022-12-15T06:47:23.082Z,1.00
2022-12-15T06:52:27.775Z,1.00
2022-12-15T06:57:32.444Z,1.00
2022-12-15T07:02:37.423Z,1.00
2022-12-15T07:07:42.187Z,1.00
2022-12-15T07:12:46.879Z,1.00
2022-12-15T07:17:52.455Z,1.00
2022-12-15T07:22:57.152Z,1.00
2022-12-15T07:28:01.846Z,1.00
2022-12-15T07:33:06.787Z,1.00
2022-12-15T07:38:11.635Z,0.00
2022-12-15T07:43:16.141Z,0.00
2022-12-15T07:48:21.147Z,1.00
2022-12-15T07:53:29.585Z,1.00
2022-12-15T07:58:34.897Z,0.00
2022-12-15T08:03:40.280Z,0.00
2022-12-15T08:08:50.744Z,0.00
2022-12-15T08:14:04.365Z,1.00
2022-12-15T08:19:12.736Z,0.00
2022-12-15T08:24:18.073Z,0.00
2022-12-15T08:29:50.021Z,0.00
2022-12-15T08:34:49.383Z,0.00
2022-12-15T08:39:54.215Z,0.00
2022-12-15T08:44:58.969Z,0.25
2022-12-15T08:50:03.852Z,0.00
2022-12-15T08:55:08.801Z,1.00
2022-12-15T09:00:13.842Z,0.75
2022-12-15T09:05:18.500Z,1.00
2022-12-15T09:10:23.350Z,1.00
2022-12-15T09:15:59.793Z,1.00
2022-12-15T09:20:52.484Z,1.00
2022-12-15T09:26:03.796Z,2.00
2022-12-15T09:31:23.287Z,2.75
2022-12-15T09:36:28.980Z,2.00
2022-12-15T09:41:34.248Z,2.75
2022-12-15T09:46:50.099Z,2.25
2022-12-15T09:51:59.592Z,2.00
2022-12-15T09:57:13.253Z,3.00
2022-12-15T10:02:37.017Z,4.00
2022-12-15T10:07:45.233Z,5.75
2022-12-15T10:13:01.108Z,5.00
2022-12-15T10:18:13.196Z,4.00
2022-12-15T10:23:18.936Z,5.00
2022-12-15T10:28:26.369Z,5.25
2022-12-15T10:33:47.115Z,4.00
2022-12-15T10:38:54.796Z,6.00
2022-12-15T10:43:59.001Z,6.00
2022-12-15T10:49:26.523Z,7.00
2022-12-15T10:54:46.709Z,5.50
2022-12-15T10:59:53.762Z,5.00
2022-12-15T11:05:03.476Z,7.25
2022-12-15T11:10:16.943Z,8.00
2022-12-15T11:15:26.955Z,9.50
2022-12-15T11:20:37.143Z,6.50
2022-12-15T11:25:44.293Z,7.50
2022-12-15T11:30:57.614Z,6.50
2022-12-15T11:36:09.187Z,8.00
2022-12-15T11:41:36.196Z,6.50
2022-12-15T11:46:49.431Z,6.25
2022-12-15T11:52:00.316Z,6.75
2022-12-15T11:57:04.676Z,6.00
2022-12-15T12:02:11.959Z,6.75
2022-12-15T12:07:42.326Z,9.50
2022-12-15T12:12:56.428Z,10.00
2022-12-15T12:18:07.038Z,11.25
2022-12-15T12:23:20.815Z,9.00
2022-12-15T12:28:30.146Z,10.25
2022-12-15T12:33:35.276Z,8.50
2022-12-15T12:38:50.595Z,9.00
2022-12-15T12:44:42.616Z,7.25
2022-12-15T12:49:53.262Z,8.75
2022-12-15T12:55:11.079Z,11.00
2022-12-15T13:00:20.047Z,7.00
2022-12-15T13:05:24.448Z,8.00
2022-12-15T13:10:30.293Z,9.00
2022-12-15T13:15:44.304Z,8.50
2022-12-15T13:20:52.524Z,10.25
2022-12-15T13:26:00.245Z,11.75
2022-12-15T13:31:23.133Z,11.75
2022-12-15T13:36:39.973Z,11.00
2022-12-15T13:42:32.674Z,11.50
2022-12-15T13:47:20.806Z,7.50
2022-12-15T13:52:44.235Z,10.50
2022-12-15T13:58:02.664Z,10.25
2022-12-15T14:03:09.463Z,7.25
2022-12-15T14:08:17.524Z,9.50
2022-12-15T14:13:26.787Z,9.00
2022-12-15T14:18:33.128Z,8.75
2022-12-15T14:23:48.647Z,11.00
2022-12-15T14:29:10.670Z,7.75
2022-12-15T14:34:38.429Z,10.25
2022-12-15T14:39:46.843Z,10.00
2022-12-15T14:44:58.497Z,7.75
2022-12-15T14:50:04.152Z,8.25
2022-12-15T14:55:28.679Z,7.25
2022-12-15T15:00:35.732Z,8.00
2022-12-15T15:05:41.869Z,8.75
2022-12-15T15:10:47.274Z,6.50
2022-12-15T15:16:02.295Z,7.00
2022-12-15T15:21:08.774Z,10.00
2022-12-15T15:26:18.294Z,7.25
2022-12-15T15:31:35.284Z,8.25
2022-12-15T15:36:45.694Z,6.25
2022-12-15T15:41:51.454Z,7.00
2022-12-15T15:46:56.608Z,6.00
2022-12-15T15:52:01.273Z,6.00
2022-12-15T15:57:05.906Z,5.75
2022-12-15T16:02:12.762Z,7.00
2022-12-15T16:07:22.274Z,5.75
2022-12-15T16:12:26.574Z,6.50
2022-12-15T16:17:31.062Z,6.00
2022-12-15T16:22:35.904Z,6.75
2022-12-15T16:27:40.371Z,7.00
2022-12-15T16:32:45.045Z,5.75
2022-12-15T16:37:50.607Z,7.00
2022-12-15T16:43:02.081Z,7.75
2022-12-15T16:48:06.581Z,7.50
2022-12-15T16:53:23.048Z,8.25
2022-12-15T16:58:29.270Z,7.50
2022-12-15T17:03:34.218Z,9.00
2022-12-15T17:08:47.028Z,7.00
2022-12-15T17:13:52.552Z,7.50
2022-12-15T17:18:57.181Z,7.50
2022-12-15T17:24:05.465Z,6.00
2022-12-15T17:29:14.491Z,8.50
2022-12-15T17:34:44.990Z,5.00
2022-12-15T17:39:52.219Z,5.25
2022-12-15T17:44:56.861Z,8.50
2022-12-15T17:50:01.465Z,8.00
2022-12-15T17:55:06.417Z,4.25
2022-12-15T18:00:31.050Z,5.00
2022-12-15T18:05:35.702Z,6.75
2022-12-15T18:10:42.170Z,5.25
2022-12-15T18:15:47.825Z,5.00
2022-12-15T18:20:53.839Z,6.00
2022-12-15T18:26:03.206Z,7.00
2022-12-15T18:31:29.723Z,4.75
2022-12-15T18:36:34.238Z,5.00
2022-12-15T18:41:38.860Z,4.50
2022-12-15T18:46:47.798Z,5.00
2022-12-15T18:51:52.809Z,3.00
2022-12-15T18:56:57.349Z,5.00
2022-12-15T19:02:02.086Z,3.00
2022-12-15T19:07:07.978Z,2.00
2022-12-15T19:12:21.867Z,3.00
2022-12-15T19:17:44.530Z,3.00
2022-12-15T19:22:49.824Z,2.00
2022-12-15T19:27:59.913Z,1.75
2022-12-15T19:33:04.525Z,1.75
2022-12-15T19:38:09.354Z,2.00
2022-12-15T19:43:16.718Z,2.00
2022-12-15T19:48:23.802Z,2.00
2022-12-15T19:53:32.787Z,1.00
2022-12-15T19:58:38.068Z,1.00
2022-12-15T20:03:43.736Z,1.00
2022-12-15T20:08:49.643Z,2.50
2022-12-15T20:13:54.215Z,1.00
2022-12-15T20:18:59.083Z,1.00
2022-12-15T20:24:08.512Z,0.75
2022-12-15T20:29:38.894Z,1.00
2022-12-15T20:34:43.171Z,0.75
2022-12-15T20:39:48.656Z,1.00
2022-12-15T20:44:54.588Z,1.00
2022-12-15T20:49:58.617Z,0.00
2022-12-15T20:55:05.485Z,1.00
2022-12-15T21:00:10.181Z,0.00
2022-12-15T21:05:19.265Z,0.00
2022-12-15T21:10:23.618Z,0.00
2022-12-15T21:15:28.226Z,1.50
2022-12-15T21:20:33.427Z,1.25
2022-12-15T21:25:39.274Z,0.00
2022-12-15T21:30:43.990Z,0.00
2022-12-15T21:35:49.158Z,1.00
2022-12-15T21:40:57.794Z,0.75
2022-12-15T21:46:04.367Z,0.75
2022-12-15T21:51:12.020Z,0.00
2022-12-15T21:56:17.778Z,0.00
2022-12-15T22:01:23.636Z,0.00
2022-12-15T22:06:29.121Z,0.00
2022-12-15T22:11:33.963Z,0.00
2022-12-15T22:16:38.735Z,0.00
2022-12-15T22:21:43.533Z,0.00
2022-12-15T22:26:49.055Z,0.00
2022-12-15T22:31:55.014Z,0.75
2022-12-15T22:36:59.766Z,0.25
2022-12-15T22:42:05.832Z,0.00
2022-12-15T22:47:12.228Z,0.00
2022-12-15T22:52:19.029Z,0.00
2022-12-15T22:57:28.066Z,0.00
2022-12-15T23:02:38.417Z,0.00
2022-12-15T23:07:43.439Z,0.00
2022-12-15T23:12:48.427Z,0.00
2022-12-15T23:17:52.984Z,0.00
2022-12-15T23:23:00.489Z,0.00
2022-12-15T23:28:05.199Z,0.00
2022-12-15T23:33:09.746Z,0.25
2022-12-15T23:38:14.599Z,0.25
2022-12-15T23:43:19.590Z,0.00
2022-12-15T23:48:24.393Z,1.00
2022-12-15T23:53:29.338Z,0.50
2022-12-15T23:58:34.502Z,0.00
